Time;durP1;ratioP1;P1;durP2;ratioP2;P2;SDS_P1;SDS_P2;PMS_P1;PMS_P2;Temp;Humidity;BMP_temperature;BMP_pressure;BME280_temperature;BME280_humidity;BME280_pressure;Samples;Min_cycle;Max_cycle;Signal;HPM_P1;HPM_P2
2023/04/18 00:01:08;;;;;;;14.07;7.95;;;7.30;99.90;;;;;;5052241;28;20041;-67
2023/04/18 00:03:36;;;;;;;14.07;8.77;;;7.30;99.90;;;;;;5034261;28;20556;-67
2023/04/18 00:06:02;;;;;;;15.05;9.55;;;7.40;99.90;;;;;;5051610;28;20401;-67
2023/04/18 00:08:28;;;;;;;20.33;10.68;;;7.40;99.90;;;;;;5051594;28;20049;-67
2023/04/18 00:10:54;;;;;;;15.73;9.40;;;7.40;99.90;;;;;;5052876;28;20033;-67
2023/04/18 00:13:19;;;;;;;16.08;9.15;;;7.50;99.90;;;;;;5051386;28;20029;-67
2023/04/18 00:15:45;;;;;;;15.32;8.48;;;7.60;99.90;;;;;;5052014;28;20162;-67
2023/04/18 00:18:14;;;;;;;17.77;9.48;;;7.60;99.90;;;;;;5052390;28;20401;-67
2023/04/18 00:20:40;;;;;;;18.42;9.45;;;7.70;99.90;;;;;;5052773;28;20044;-67
2023/04/18 00:23:06;;;;;;;17.77;9.35;;;7.70;99.90;;;;;;5051547;28;20166;-67
2023/04/18 00:25:32;;;;;;;13.40;7.85;;;7.70;99.90;;;;;;5050398;28;20495;-67
2023/04/18 00:27:58;;;;;;;14.15;8.20;;;7.70;99.90;;;;;;5051215;28;20175;-67
2023/04/18 00:30:23;;;;;;;13.27;8.00;;;7.70;99.90;;;;;;5050810;28;20076;-67
2023/04/18 00:32:49;;;;;;;12.57;8.30;;;7.70;99.90;;;;;;5050867;28;20120;-67
2023/04/18 00:35:15;;;;;;;12.93;8.55;;;7.80;99.90;;;;;;5033925;28;20045;-67
2023/04/18 00:37:40;;;;;;;12.52;6.20;;;7.70;99.90;;;;;;5052537;28;20045;-67
2023/04/18 00:40:07;;;;;;;11.65;6.80;;;7.80;99.90;;;;;;5051145;28;20051;-67
2023/04/18 00:42:32;;;;;;;13.15;6.70;;;7.80;99.90;;;;;;5050379;28;20053;-67
2023/04/18 00:44:58;;;;;;;11.82;6.57;;;7.90;99.90;;;;;;5051446;28;20095;-67
2023/04/18 00:47:24;;;;;;;12.90;6.90;;;7.90;99.90;;;;;;5049797;28;20552;-68
2023/04/18 00:49:50;;;;;;;12.65;7.13;;;8.00;99.90;;;;;;5051222;28;20398;-68
2023/04/18 00:52:17;;;;;;;14.65;8.05;;;8.00;99.90;;;;;;5050916;28;20041;-68
2023/04/18 00:54:44;;;;;;;10.77;6.55;;;7.90;99.90;;;;;;5051158;28;20049;-67
2023/04/18 00:57:11;;;;;;;16.50;6.72;;;8.00;99.90;;;;;;5051287;28;20551;-67
2023/04/18 00:59:37;;;;;;;13.02;7.57;;;8.00;99.90;;;;;;5051655;28;20052;-67
2023/04/18 01:02:03;;;;;;;12.80;6.78;;;8.00;99.90;;;;;;5051383;28;20099;-68
2023/04/18 01:04:33;;;;;;;13.63;6.43;;;7.90;99.90;;;;;;5050413;28;20045;-67
2023/04/18 01:07:01;;;;;;;11.68;7.18;;;7.90;99.90;;;;;;5050690;28;20433;-67
2023/04/18 01:09:27;;;;;;;11.20;7.07;;;7.90;99.90;;;;;;5050162;28;20041;-67
2023/04/18 01:11:53;;;;;;;12.32;7.30;;;7.80;99.90;;;;;;5067841;28;20437;-67
2023/04/18 01:14:19;;;;;;;10.65;6.70;;;7.70;99.90;;;;;;5049772;28;20124;-68
2023/04/18 01:16:46;;;;;;;12.18;7.40;;;7.70;99.90;;;;;;5051786;28;20119;-68
2023/04/18 01:19:12;;;;;;;13.82;6.95;;;7.60;99.90;;;;;;5034407;28;20070;-67
2023/04/18 01:21:40;;;;;;;12.35;6.78;;;7.50;99.90;;;;;;5066364;28;20498;-68
2023/04/18 01:24:07;;;;;;;9.20;6.05;;;7.50;99.90;;;;;;5050304;28;20070;-67
2023/04/18 01:26:33;;;;;;;11.77;6.70;;;7.50;99.90;;;;;;5050258;28;20076;-68
2023/04/18 01:28:59;;;;;;;13.45;6.95;;;7.40;99.90;;;;;;5066913;28;20504;-67
2023/04/18 01:31:24;;;;;;;13.30;7.03;;;7.40;99.90;;;;;;5051096;28;20037;-68
2023/04/18 01:33:50;;;;;;;14.40;7.15;;;7.40;99.90;;;;;;5050558;28;20367;-67
2023/04/18 01:36:16;;;;;;;12.75;7.85;;;7.40;99.90;;;;;;5050061;28;20040;-68
2023/04/18 01:38:41;;;;;;;10.90;6.60;;;7.30;99.90;;;;;;5050142;28;20084;-67
2023/04/18 01:41:07;;;;;;;13.18;7.68;;;7.30;99.90;;;;;;5052138;28;20048;-67
2023/04/18 01:43:33;;;;;;;16.52;7.82;;;7.30;99.90;;;;;;5052979;28;20055;-67
2023/04/18 01:45:58;;;;;;;12.38;7.28;;;7.30;99.90;;;;;;5055759;28;20104;-67
2023/04/18 01:48:24;;;;;;;15.43;7.88;;;7.30;99.90;;;;;;5055292;28;20116;-67
2023/04/18 01:50:50;;;;;;;12.23;6.93;;;7.30;99.90;;;;;;5037294;28;20041;-67
2023/04/18 01:53:16;;;;;;;13.80;6.60;;;7.30;99.90;;;;;;5055523;28;20094;-67
2023/04/18 01:55:42;;;;;;;12.82;7.28;;;7.30;99.90;;;;;;5054351;28;20044;-68
2023/04/18 01:58:08;;;;;;;11.40;6.28;;;7.30;99.90;;;;;;5070442;28;20041;-67
2023/04/18 02:00:34;;;;;;;13.25;7.03;;;7.30;99.90;;;;;;5054947;28;20044;-67
2023/04/18 02:02:59;;;;;;;13.32;7.75;;;7.30;99.90;;;;;;5055091;28;20036;-68
2023/04/18 02:05:26;;;;;;;12.10;6.97;;;7.30;99.90;;;;;;5054532;28;20086;-68
2023/04/18 02:07:52;;;;;;;12.52;6.93;;;7.30;99.90;;;;;;5071262;28;20033;-68
2023/04/18 02:10:18;;;;;;;11.45;6.15;;;7.20;99.90;;;;;;5053592;28;20060;-67
2023/04/18 02:12:44;;;;;;;10.50;6.20;;;7.20;99.90;;;;;;5070396;28;20130;-67
2023/04/18 02:15:10;;;;;;;10.05;6.43;;;7.20;99.90;;;;;;5054046;28;20092;-68
2023/04/18 02:17:36;;;;;;;9.63;5.93;;;7.10;99.90;;;;;;5053230;28;20480;-67
2023/04/18 02:20:02;;;;;;;9.70;5.85;;;7.10;99.90;;;;;;5053712;28;20040;-67
2023/04/18 02:22:28;;;;;;;9.43;5.78;;;7.10;99.90;;;;;;5053775;28;20512;-67
2023/04/18 02:24:54;;;;;;;8.38;4.95;;;7.10;99.90;;;;;;5053235;28;20037;-68
2023/04/18 02:27:19;;;;;;;12.63;5.97;;;7.10;99.90;;;;;;5054360;28;20118;-67
2023/04/18 02:29:45;;;;;;;10.52;5.63;;;7.10;99.90;;;;;;5054084;28;20056;-67
2023/04/18 02:32:11;;;;;;;13.52;5.40;;;7.00;99.90;;;;;;5035889;28;20039;-67
2023/04/18 02:34:37;;;;;;;9.48;5.22;;;7.00;99.90;;;;;;5053021;28;20485;-67
2023/04/18 02:37:03;;;;;;;10.73;5.50;;;6.90;99.90;;;;;;5055067;28;20040;-67
2023/04/18 02:39:29;;;;;;;8.82;4.88;;;7.00;99.90;;;;;;5052386;28;20041;-67
2023/04/18 02:41:54;;;;;;;8.10;4.75;;;6.90;99.90;;;;;;5053490;28;20063;-68
2023/04/18 02:44:20;;;;;;;10.20;5.07;;;7.00;99.90;;;;;;5053034;28;20071;-67
2023/04/18 02:46:46;;;;;;;7.75;4.68;;;7.00;99.90;;;;;;5052586;28;20052;-67
2023/04/18 02:49:11;;;;;;;10.30;5.57;;;7.00;99.90;;;;;;5053570;28;20060;-67
2023/04/18 02:51:37;;;;;;;8.32;4.53;;;7.00;99.90;;;;;;5054113;28;20037;-67
2023/04/18 02:54:03;;;;;;;8.88;4.75;;;7.00;99.90;;;;;;5052889;28;20029;-67
2023/04/18 02:56:28;;;;;;;7.63;3.78;;;7.00;99.90;;;;;;5052947;28;20547;-67
2023/04/18 02:58:54;;;;;;;8.15;4.70;;;6.90;99.90;;;;;;5053404;28;20171;-67
2023/04/18 03:01:19;;;;;;;7.32;4.20;;;6.90;99.90;;;;;;5035084;28;20047;-67
2023/04/18 03:03:45;;;;;;;9.77;5.38;;;6.90;99.90;;;;;;5053084;28;20037;-67
2023/04/18 03:06:11;;;;;;;8.10;4.10;;;6.90;99.90;;;;;;5053317;28;20037;-68
2023/04/18 03:08:37;;;;;;;7.97;4.85;;;6.90;99.90;;;;;;5068675;28;20524;-69
2023/04/18 03:11:02;;;;;;;7.45;4.68;;;6.90;99.90;;;;;;5053001;28;20044;-68
2023/04/18 03:13:28;;;;;;;6.63;3.85;;;6.90;99.90;;;;;;5051822;28;20044;-67
2023/04/18 03:15:54;;;;;;;9.55;4.53;;;6.90;99.90;;;;;;5054219;28;20112;-67
2023/04/18 03:18:20;;;;;;;8.52;4.57;;;6.90;99.90;;;;;;5053907;28;20037;-68
2023/04/18 03:20:45;;;;;;;8.45;4.25;;;7.00;99.90;;;;;;5052448;28;20040;-68
2023/04/18 03:23:11;;;;;;;8.48;4.57;;;7.00;99.90;;;;;;5053931;28;20041;-68
2023/04/18 03:25:37;;;;;;;8.07;4.05;;;7.10;99.90;;;;;;5052187;28;20135;-69
2023/04/18 03:28:03;;;;;;;9.70;5.28;;;7.10;99.90;;;;;;5052014;28;20077;-68
2023/04/18 03:30:29;;;;;;;7.88;3.97;;;7.10;99.90;;;;;;5035500;28;20469;-68
2023/04/18 03:32:58;;;;;;;8.45;4.03;;;7.10;99.90;;;;;;5053000;28;20072;-67
2023/04/18 03:35:24;;;;;;;9.13;4.68;;;7.20;99.90;;;;;;5052650;28;20524;-67
2023/04/18 03:37:50;;;;;;;8.95;4.53;;;7.20;99.90;;;;;;5053612;28;20076;-67
2023/04/18 03:40:15;;;;;;;9.23;5.45;;;7.20;99.90;;;;;;5052455;28;20071;-67
2023/04/18 03:42:41;;;;;;;7.40;4.35;;;7.20;99.90;;;;;;5051282;28;20053;-67
2023/04/18 03:45:07;;;;;;;9.13;4.68;;;7.30;99.90;;;;;;5052376;28;20057;-67
2023/04/18 03:47:33;;;;;;;12.35;5.35;;;7.30;99.90;;;;;;5051797;28;20588;-67
2023/04/18 03:49:58;;;;;;;10.65;4.38;;;7.30;99.90;;;;;;5053054;28;20044;-67
2023/04/18 03:52:24;;;;;;;9.18;4.88;;;7.40;99.90;;;;;;5051978;28;20045;-68
2023/04/18 03:54:50;;;;;;;10.73;4.68;;;7.40;99.90;;;;;;5052244;28;20037;-67
2023/04/18 03:57:16;;;;;;;13.75;7.18;;;7.40;99.90;;;;;;5050847;28;20131;-67
2023/04/18 03:59:42;;;;;;;12.65;6.25;;;7.50;99.90;;;;;;5053300;28;20041;-67
2023/04/18 04:02:07;;;;;;;9.68;4.93;;;7.40;99.90;;;;;;5053653;28;20119;-67
2023/04/18 04:04:33;;;;;;;9.60;5.20;;;7.40;99.90;;;;;;5051330;28;20596;-67
2023/04/18 04:06:59;;;;;;;9.85;5.38;;;7.50;99.90;;;;;;5052158;28;20439;-67
2023/04/18 04:09:25;;;;;;;10.38;5.88;;;7.50;99.90;;;;;;5051506;28;20478;-68
2023/04/18 04:11:50;;;;;;;8.13;4.57;;;7.50;99.90;;;;;;5051131;28;20536;-67
2023/04/18 04:14:16;;;;;;;10.90;6.25;;;7.50;99.90;;;;;;5051679;28;20041;-67
2023/04/18 04:16:42;;;;;;;11.88;6.25;;;7.50;99.90;;;;;;5051296;28;20044;-67
2023/04/18 04:19:07;;;;;;;10.32;5.28;;;7.50;99.90;;;;;;5034983;28;20138;-67
2023/04/18 04:21:33;;;;;;;11.93;6.13;;;7.50;99.90;;;;;;5052168;28;20041;-67
2023/04/18 04:24:00;;;;;;;12.32;5.97;;;7.50;99.90;;;;;;5051130;28;20040;-67
2023/04/18 04:26:26;;;;;;;10.05;5.78;;;7.50;99.90;;;;;;5050870;28;20102;-67
2023/04/18 04:28:52;;;;;;;10.52;5.65;;;7.50;99.90;;;;;;5053075;28;20115;-67
2023/04/18 04:31:18;;;;;;;11.70;6.82;;;7.50;99.90;;;;;;5050683;28;20049;-67
2023/04/18 04:33:45;;;;;;;16.25;8.23;;;7.50;99.90;;;;;;5051047;28;20041;-67
2023/04/18 04:36:13;;;;;;;12.88;7.25;;;7.50;99.90;;;;;;5051611;28;20109;-67
2023/04/18 04:38:40;;;;;;;13.82;6.68;;;7.60;99.90;;;;;;5051559;28;20421;-67
2023/04/18 04:41:06;;;;;;;11.52;6.38;;;7.50;99.90;;;;;;5034662;28;20058;-67
2023/04/18 04:43:32;;;;;;;12.25;6.03;;;7.50;99.90;;;;;;5050947;28;20040;-67
2023/04/18 04:45:58;;;;;;;13.82;7.10;;;7.50;99.90;;;;;;5050686;28;20110;-68
2023/04/18 04:48:24;;;;;;;13.45;7.57;;;7.50;99.90;;;;;;5050737;28;20474;-67
2023/04/18 04:50:55;;;;;;;13.75;7.45;;;7.60;99.90;;;;;;5051239;28;20033;-67
2023/04/18 04:53:22;;;;;;;16.20;7.97;;;7.60;99.90;;;;;;5049877;28;20112;-67
2023/04/18 04:55:48;;;;;;;12.70;7.65;;;7.60;99.90;;;;;;5052379;28;20478;-67
2023/04/18 04:58:14;;;;;;;29.15;14.13;;;7.60;99.90;;;;;;5034784;28;20091;-67
2023/04/18 05:00:39;;;;;;;18.85;11.32;;;7.60;99.90;;;;;;5050208;28;20075;-67
2023/04/18 05:03:06;;;;;;;15.32;8.38;;;7.60;99.90;;;;;;5051366;28;20478;-67
2023/04/18 05:05:33;;;;;;;20.38;10.75;;;7.60;99.90;;;;;;5050645;28;20048;-67
2023/04/18 05:07:58;;;;;;;14.80;8.30;;;7.60;99.90;;;;;;5066807;28;20047;-67
2023/04/18 05:10:24;;;;;;;15.02;9.57;;;7.60;99.90;;;;;;5051756;28;20037;-67
2023/04/18 05:12:50;;;;;;;14.90;8.90;;;7.60;99.90;;;;;;5051148;28;20505;-67
2023/04/18 05:15:17;;;;;;;11.35;7.85;;;7.60;99.90;;;;;;5050283;28;20064;-67
2023/04/18 05:17:43;;;;;;;12.90;7.45;;;7.60;99.90;;;;;;5051072;28;20409;-67
2023/04/18 05:20:09;;;;;;;15.05;7.80;;;7.60;99.90;;;;;;5050384;28;20051;-67
2023/04/18 05:22:35;;;;;;;13.55;7.15;;;7.60;99.90;;;;;;5033343;28;20506;-67
2023/04/18 05:25:01;;;;;;;15.07;8.25;;;7.70;99.90;;;;;;5052081;28;20077;-67
2023/04/18 05:27:26;;;;;;;22.65;12.13;;;7.70;99.90;;;;;;5049639;28;20120;-67
2023/04/18 05:29:52;;;;;;;15.88;9.80;;;7.60;99.90;;;;;;5050899;28;20087;-67
2023/04/18 05:32:18;;;;;;;13.48;7.47;;;7.70;99.90;;;;;;5050784;28;20494;-67
2023/04/18 05:34:44;;;;;;;14.23;9.18;;;7.70;99.90;;;;;;5033428;28;20033;-67
2023/04/18 05:37:10;;;;;;;14.98;8.10;;;7.70;99.90;;;;;;5051483;28;20041;-67
2023/04/18 05:39:36;;;;;;;13.38;8.48;;;7.70;99.90;;;;;;5051528;28;20091;-67
2023/04/18 05:42:02;;;;;;;11.43;7.00;;;7.70;99.90;;;;;;5033251;28;20107;-67
2023/04/18 05:44:28;;;;;;;12.77;7.38;;;7.70;99.90;;;;;;5033573;28;20049;-67
2023/04/18 05:46:54;;;;;;;10.25;7.00;;;7.70;99.90;;;;;;5050477;28;20060;-67
2023/04/18 05:49:20;;;;;;;11.73;6.47;;;7.80;99.90;;;;;;5033112;28;20505;-67
2023/04/18 05:51:48;;;;;;;10.60;7.55;;;7.70;99.90;;;;;;5033741;28;20478;-67
2023/04/18 05:54:15;;;;;;;13.68;8.00;;;7.80;99.90;;;;;;5051758;28;20589;-67
2023/04/18 05:56:41;;;;;;;13.52;7.60;;;7.80;99.90;;;;;;5050852;28;20037;-67
2023/04/18 05:59:06;;;;;;;11.88;7.57;;;7.80;99.90;;;;;;5050847;28;20052;-67
2023/04/18 06:01:32;;;;;;;11.23;7.72;;;7.90;99.90;;;;;;5049860;28;20052;-67
2023/04/18 06:03:58;;;;;;;11.90;7.03;;;7.90;99.90;;;;;;5049676;28;20040;-67
2023/04/18 06:06:23;;;;;;;14.70;8.88;;;8.00;99.90;;;;;;5051207;28;20124;-67
2023/04/18 06:08:49;;;;;;;12.77;7.20;;;8.00;99.90;;;;;;5051790;28;20048;-67
2023/04/18 06:11:15;;;;;;;11.68;6.78;;;8.00;99.90;;;;;;5049214;28;20040;-67
2023/04/18 06:13:40;;;;;;;13.85;8.00;;;8.10;99.90;;;;;;5050476;28;20037;-67
2023/04/18 06:16:06;;;;;;;13.05;7.90;;;8.10;99.90;;;;;;5051683;28;20040;-67
2023/04/18 06:18:33;;;;;;;14.50;8.93;;;8.10;99.90;;;;;;5048906;28;20033;-67
2023/04/18 06:20:59;;;;;;;13.13;7.68;;;8.10;99.90;;;;;;5033581;28;20041;-67
2023/04/18 06:23:24;;;;;;;12.50;7.63;;;8.20;99.90;;;;;;5049324;28;20045;-67
2023/04/18 06:25:50;;;;;;;11.77;7.53;;;8.20;99.90;;;;;;5050199;28;20120;-67
2023/04/18 06:28:16;;;;;;;13.65;7.30;;;8.10;99.90;;;;;;5053370;28;20058;-67
2023/04/18 06:30:42;;;;;;;10.70;6.90;;;8.10;99.90;;;;;;5054490;28;20482;-67
2023/04/18 06:33:10;;;;;;;12.13;7.60;;;8.10;99.90;;;;;;5053958;28;20557;-67
2023/04/18 06:35:36;;;;;;;12.45;6.97;;;8.20;99.90;;;;;;5053327;28;20055;-67
2023/04/18 06:38:02;;;;;;;13.52;6.75;;;8.40;99.90;;;;;;5053219;28;20106;-67
2023/04/18 06:40:28;;;;;;;11.40;6.45;;;8.40;99.90;;;;;;5054089;28;20478;-67
2023/04/18 06:42:54;;;;;;;13.80;7.63;;;8.50;99.90;;;;;;5053573;28;20053;-67
2023/04/18 06:45:20;;;;;;;11.40;6.63;;;8.60;99.90;;;;;;5052278;28;20132;-67
2023/04/18 06:47:46;;;;;;;10.15;5.85;;;8.70;99.90;;;;;;5054413;28;20112;-67
2023/04/18 06:50:13;;;;;;;10.98;6.40;;;8.70;99.90;;;;;;5036863;28;20041;-68
2023/04/18 06:52:43;;;;;;;12.57;7.35;;;8.80;99.90;;;;;;5035443;28;20041;-67
2023/04/18 06:55:10;;;;;;;10.98;6.10;;;8.80;99.90;;;;;;5045726;28;20041;-67
2023/04/18 06:57:36;;;;;;;10.50;6.55;;;8.90;99.90;;;;;;5049510;28;20601;-67
2023/04/18 07:00:03;;;;;;;10.13;5.57;;;8.90;99.90;;;;;;5039942;28;20040;-67
2023/04/18 07:02:29;;;;;;;8.95;4.75;;;8.90;99.90;;;;;;5033701;28;20064;-67
2023/04/18 07:04:55;;;;;;;9.73;5.63;;;8.90;99.90;;;;;;5052086;28;20033;-67
2023/04/18 07:07:20;;;;;;;9.27;4.97;;;8.90;99.90;;;;;;5049059;28;20513;-67
2023/04/18 07:09:47;;;;;;;13.23;6.70;;;9.00;99.90;;;;;;5033868;28;20037;-68
2023/04/18 07:12:13;;;;;;;10.88;5.40;;;9.00;99.90;;;;;;5049232;28;20152;-68
2023/04/18 07:14:38;;;;;;;11.70;6.72;;;9.00;99.90;;;;;;5049563;28;20123;-68
2023/04/18 07:17:04;;;;;;;9.55;5.50;;;9.10;99.90;;;;;;5050816;28;20041;-68
2023/04/18 07:19:30;;;;;;;8.52;5.22;;;9.10;99.90;;;;;;5049733;28;20036;-68
2023/04/18 07:21:55;;;;;;;11.23;5.55;;;9.20;99.90;;;;;;5033604;28;20037;-69
2023/04/18 07:24:22;;;;;;;8.60;4.72;;;9.30;99.90;;;;;;5033030;28;20037;-68
2023/04/18 07:26:49;;;;;;;9.57;5.30;;;9.30;99.90;;;;;;5049524;28;20056;-68
2023/04/18 07:29:15;;;;;;;9.27;5.35;;;9.30;99.90;;;;;;5032368;28;20037;-68
2023/04/18 07:31:40;;;;;;;8.77;4.90;;;9.30;99.90;;;;;;5050178;28;20527;-68
2023/04/18 07:34:07;;;;;;;10.60;5.18;;;9.30;99.90;;;;;;5050038;28;20037;-68
2023/04/18 07:36:33;;;;;;;9.43;5.82;;;9.30;99.90;;;;;;5049206;28;20072;-66
2023/04/18 07:39:00;;;;;;;10.23;5.63;;;9.30;99.90;;;;;;5050360;28;20130;-66
2023/04/18 07:41:26;;;;;;;9.65;6.32;;;9.40;99.90;;;;;;5048934;28;20502;-66
2023/04/18 07:43:51;;;;;;;10.48;5.57;;;9.40;99.90;;;;;;5067137;28;20045;-66
2023/04/18 07:46:17;;;;;;;10.52;6.53;;;9.50;99.90;;;;;;5049847;28;20138;-66
2023/04/18 07:48:42;;;;;;;8.23;5.22;;;9.60;99.90;;;;;;5049153;28;20072;-66
2023/04/18 07:51:10;;;;;;;10.20;5.70;;;9.70;99.90;;;;;;5032801;28;20114;-66
2023/04/18 07:53:36;;;;;;;9.35;5.50;;;9.70;99.90;;;;;;5030469;28;20037;-66
2023/04/18 07:56:02;;;;;;;9.88;5.95;;;9.90;99.90;;;;;;5046681;28;20049;-66
2023/04/18 07:58:28;;;;;;;10.95;5.60;;;9.90;99.90;;;;;;5042735;28;20048;-66
2023/04/18 08:00:53;;;;;;;10.43;5.13;;;9.90;99.90;;;;;;5049513;28;20041;-66
2023/04/18 08:03:19;;;;;;;11.57;6.20;;;10.00;99.90;;;;;;5049353;28;20037;-66
2023/04/18 08:05:45;;;;;;;10.10;6.05;;;10.00;99.90;;;;;;5049017;28;20068;-66
2023/04/18 08:08:11;;;;;;;11.93;5.88;;;10.10;99.90;;;;;;5050419;28;20064;-66
2023/04/18 08:10:37;;;;;;;11.95;6.22;;;10.20;99.90;;;;;;5048151;28;20041;-66
2023/04/18 08:13:03;;;;;;;11.85;6.57;;;10.20;99.90;;;;;;5049040;28;20040;-66
2023/04/18 08:15:31;;;;;;;11.18;6.10;;;10.30;99.90;;;;;;5048240;28;20045;-66
2023/04/18 08:17:58;;;;;;;16.30;6.95;;;10.30;99.90;;;;;;5048683;28;20073;-66
2023/04/18 08:20:24;;;;;;;11.32;6.82;;;10.40;99.90;;;;;;5048954;28;20025;-66
2023/04/18 08:22:49;;;;;;;10.93;5.78;;;10.40;99.90;;;;;;5047960;28;20509;-66
2023/04/18 08:25:16;;;;;;;9.43;6.10;;;10.60;99.90;;;;;;5048200;28;20124;-66
2023/04/18 08:27:42;;;;;;;11.55;6.70;;;10.60;99.90;;;;;;5032375;28;20045;-66
2023/04/18 08:30:08;;;;;;;11.32;6.70;;;10.60;99.90;;;;;;5046809;28;20041;-66
2023/04/18 08:32:35;;;;;;;10.82;7.00;;;10.70;99.90;;;;;;5047745;28;20102;-66
2023/04/18 08:35:02;;;;;;;10.88;6.45;;;10.70;99.90;;;;;;5046357;28;20584;-66
2023/04/18 08:37:28;;;;;;;11.55;6.03;;;10.70;99.90;;;;;;5047015;28;20037;-66
2023/04/18 08:39:53;;;;;;;10.20;5.63;;;10.80;99.90;;;;;;5049963;28;20041;-66
2023/04/18 08:42:20;;;;;;;12.57;7.03;;;10.90;99.90;;;;;;5048605;28;20060;-66
2023/04/18 08:44:46;;;;;;;10.50;6.38;;;11.00;99.90;;;;;;5059968;28;20540;-66
2023/04/18 08:47:12;;;;;;;11.40;7.30;;;11.00;99.90;;;;;;5029095;28;20045;-66
2023/04/18 08:49:38;;;;;;;9.68;6.45;;;11.10;99.90;;;;;;5041495;28;20078;-66
2023/04/18 08:52:12;;;;;;;10.30;6.40;;;11.20;99.90;;;;;;5048978;28;20401;-66
2023/04/18 08:54:44;;;;;;;8.52;5.63;;;11.20;99.90;;;;;;5044410;28;20110;-67
2023/04/18 08:57:11;;;;;;;11.77;6.25;;;11.20;99.90;;;;;;5045913;28;20049;-67
2023/04/18 08:59:38;;;;;;;11.82;6.97;;;11.20;99.90;;;;;;5027670;28;20506;-65
2023/04/18 09:02:07;;;;;;;10.65;6.45;;;11.30;99.90;;;;;;5042361;28;20041;-66
2023/04/18 09:04:44;;;;;;;9.57;5.35;;;11.40;99.90;;;;;;5048241;28;20041;-66
2023/04/18 09:07:12;;;;;;;11.00;5.85;;;11.40;99.90;;;;;;5049142;28;20429;-65
2023/04/18 09:09:45;;;;;;;9.90;6.00;;;11.40;99.90;;;;;;5030450;28;20043;-62
2023/04/18 09:12:17;;;;;;;11.13;5.35;;;11.40;99.90;;;;;;5046924;28;20040;-61
2023/04/18 09:14:47;;;;;;;9.95;6.07;;;11.40;99.90;;;;;;5042305;28;20051;-61
2023/04/18 09:17:20;;;;;;;8.20;5.70;;;11.40;99.90;;;;;;5047976;28;20041;-62
2023/04/18 09:19:47;;;;;;;10.55;6.57;;;11.50;99.90;;;;;;5049305;28;20508;-69
2023/04/18 09:22:13;;;;;;;9.65;5.22;;;11.50;99.90;;;;;;5065361;28;20041;-68
2023/04/18 09:24:47;;;;;;;7.90;4.85;;;11.60;99.90;;;;;;5049510;28;20039;-63
2023/04/18 09:27:13;;;;;;;13.52;6.28;;;11.60;99.90;;;;;;5047820;28;20044;-64
2023/04/18 09:29:53;;;;;;;8.55;5.82;;;11.60;99.90;;;;;;5046085;28;20141;-64
2023/04/18 09:32:29;;;;;;;11.63;6.60;;;11.60;99.90;;;;;;5048921;28;20041;-64
2023/04/18 09:35:00;;;;;;;11.75;6.07;;;11.70;99.90;;;;;;5063907;28;20070;-63
2023/04/18 09:37:27;;;;;;;10.82;6.47;;;11.90;99.90;;;;;;5048937;28;20059;-67
2023/04/18 09:39:54;;;;;;;10.45;6.15;;;11.80;99.90;;;;;;5050616;28;20029;-65
2023/04/18 09:42:21;;;;;;;10.75;6.13;;;11.80;99.90;;;;;;5050323;28;20140;-66
2023/04/18 09:45:06;;;;;;;8.35;5.55;;;11.90;99.90;;;;;;5050605;28;20050;-63
2023/04/18 09:47:36;;;;;;;9.68;6.32;;;11.90;99.90;;;;;;5033129;28;20905;-64
2023/04/18 09:50:07;;;;;;;10.18;5.55;;;11.90;99.90;;;;;;5043808;28;20076;-64
2023/04/18 09:52:35;;;;;;;11.48;6.07;;;12.00;99.90;;;;;;5048770;28;20108;-64
2023/04/18 09:55:03;;;;;;;10.18;5.95;;;12.10;99.90;;;;;;5049634;28;20047;-64
2023/04/18 09:57:30;;;;;;;9.27;5.50;;;12.20;99.90;;;;;;5033128;28;20033;-65
2023/04/18 10:00:19;;;;;;;9.75;5.72;;;12.20;99.90;;;;;;5034228;28;20060;-65
2023/04/18 10:03:01;;;;;;;7.18;4.82;;;12.30;99.90;;;;;;5052774;28;20079;-65
2023/04/18 10:05:30;;;;;;;11.27;5.43;;;12.30;99.70;;;;;;5055215;28;20045;-67
2023/04/18 10:07:56;;;;;;;11.05;5.43;;;12.30;99.90;;;;;;5056047;28;20389;-68
2023/04/18 10:10:23;;;;;;;9.50;4.97;;;12.20;99.90;;;;;;5053177;28;20037;-68
2023/04/18 10:12:52;;;;;;;8.70;5.20;;;12.20;99.90;;;;;;5070816;28;20029;-68
2023/04/18 10:15:21;;;;;;;8.50;5.20;;;12.30;99.90;;;;;;5070312;28;20037;-68
2023/04/18 10:18:13;;;;;;;10.75;5.10;;;12.30;99.90;;;;;;5054966;28;20037;-70
2023/04/18 10:20:40;;;;;;;7.85;4.80;;;12.30;99.90;;;;;;5033722;28;20057;-65
2023/04/18 10:23:33;;;;;;;8.95;5.10;;;12.40;99.90;;;;;;5034497;28;20053;-63
2023/04/18 10:25:59;;;;;;;7.30;4.63;;;12.40;99.50;;;;;;5053854;28;20045;-62
2023/04/18 10:28:26;;;;;;;9.68;4.47;;;12.50;99.70;;;;;;5053034;28;20111;-64
2023/04/18 10:30:55;;;;;;;8.38;4.20;;;12.60;99.10;;;;;;5054629;28;20555;-67
2023/04/18 10:33:29;;;;;;;9.15;4.72;;;12.50;98.40;;;;;;5054235;28;20033;-68
2023/04/18 10:35:59;;;;;;;8.05;4.90;;;12.50;99.00;;;;;;5053871;28;20503;-69
2023/04/18 10:38:25;;;;;;;12.80;5.47;;;12.60;98.90;;;;;;5052280;28;20066;-69
2023/04/18 10:40:51;;;;;;;8.65;4.93;;;12.60;98.90;;;;;;5053772;28;20037;-66
2023/04/18 10:43:16;;;;;;;7.93;4.82;;;12.70;99.40;;;;;;5053670;28;20060;-68
2023/04/18 10:45:42;;;;;;;9.40;4.85;;;12.80;99.60;;;;;;5053398;28;20045;-70
2023/04/18 10:48:31;;;;;;;11.45;5.05;;;13.00;99.40;;;;;;5053615;28;20037;-67
2023/04/18 10:51:13;;;;;;;8.23;4.70;;;13.00;98.10;;;;;;5069428;28;20033;-67
2023/04/18 10:53:45;;;;;;;7.50;4.97;;;12.90;98.50;;;;;;5053626;28;20045;-67
2023/04/18 10:56:13;;;;;;;8.75;5.05;;;12.90;98.60;;;;;;5050511;28;20375;-72
2023/04/18 10:58:40;;;;;;;7.55;4.85;;;12.90;98.90;;;;;;5047551;28;20045;-69
2023/04/18 11:01:07;;;;;;;12.73;6.78;;;13.00;98.80;;;;;;5037082;28;20397;-67
2023/04/18 11:03:34;;;;;;;11.48;4.82;;;13.00;98.60;;;;;;5052435;28;20040;-69
2023/04/18 11:06:03;;;;;;;7.85;4.90;;;12.90;98.80;;;;;;5035986;28;20044;-69
2023/04/18 11:08:29;;;;;;;7.15;4.32;;;12.90;98.90;;;;;;5052551;28;20484;-69
2023/04/18 11:10:58;;;;;;;10.18;4.78;;;13.00;99.60;;;;;;5052717;28;20083;-68
2023/04/18 11:13:24;;;;;;;11.57;5.72;;;13.10;99.30;;;;;;5052643;28;20493;-69
2023/04/18 11:15:50;;;;;;;8.65;3.95;;;13.10;98.30;;;;;;5036508;28;20043;-69
2023/04/18 11:18:15;;;;;;;7.28;4.50;;;13.00;98.30;;;;;;5052969;28;20044;-68
2023/04/18 11:20:49;;;;;;;7.95;4.68;;;13.10;98.40;;;;;;5051539;28;20127;-68
2023/04/18 11:23:24;;;;;;;8.65;4.70;;;13.20;99.30;;;;;;5053832;28;20041;-69
2023/04/18 11:25:52;;;;;;;6.97;4.15;;;13.30;98.70;;;;;;5052197;28;20041;-69
2023/04/18 11:28:20;;;;;;;10.48;4.75;;;13.50;98.80;;;;;;5068904;28;20566;-70
2023/04/18 11:30:46;;;;;;;7.50;4.65;;;13.60;99.20;;;;;;5052659;28;20094;-69
2023/04/18 11:33:12;;;;;;;9.55;5.07;;;13.60;99.10;;;;;;5052007;28;20041;-69
2023/04/18 11:35:41;;;;;;;10.45;5.88;;;13.50;98.80;;;;;;5051945;28;20072;-68
2023/04/18 11:38:08;;;;;;;7.47;4.22;;;13.40;99.10;;;;;;5036610;28;20076;-68
2023/04/18 11:40:35;;;;;;;8.02;4.97;;;13.30;99.10;;;;;;5052030;28;20040;-68
2023/04/18 11:46:55;;;;;;;8.40;5.15;;;13.20;98.70;;;;;;5045627;28;20440;-69
2023/04/18 11:49:31;;;;;;;8.80;4.78;;;13.20;99.20;;;;;;5034661;28;20125;-69
2023/04/18 11:51:58;;;;;;;7.00;3.90;;;13.30;99.70;;;;;;5016231;28;20041;-68
2023/04/18 11:54:43;;;;;;;10.63;4.43;;;13.20;99.50;;;;;;5031163;28;20045;-68
2023/04/18 11:57:22;;;;;;;11.85;5.10;;;13.20;99.10;;;;;;5032681;28;20433;-69
2023/04/18 11:59:53;;;;;;;7.00;3.55;;;13.30;99.50;;;;;;5032379;28;20548;-69
2023/04/18 12:02:20;;;;;;;7.63;3.50;;;13.40;99.20;;;;;;5037014;28;20040;-69
2023/04/18 12:04:59;;;;;;;6.35;3.42;;;13.50;98.70;;;;;;5053603;28;20049;-69
2023/04/18 12:07:36;;;;;;;10.02;3.90;;;13.60;98.40;;;;;;5053069;28;20037;-69
2023/04/18 12:10:03;;;;;;;6.68;3.78;;;13.70;98.60;;;;;;5051371;28;20037;-69
2023/04/18 12:12:29;;;;;;;5.72;3.25;;;13.90;99.10;;;;;;5051360;28;20037;-69
2023/04/18 12:15:15;;;;;;;8.02;3.38;;;13.70;97.80;;;;;;5034890;28;20040;-68
2023/04/18 12:17:43;;;;;;;10.75;5.05;;;13.70;98.30;;;;;;5052001;28;20045;-69
2023/04/18 12:20:09;;;;;;;11.18;7.30;;;13.80;99.70;;;;;;5035192;28;20167;-69
2023/04/18 12:22:41;;;;;;;11.93;7.55;;;13.70;99.90;;;;;;5050613;28;20041;-68
2023/04/18 12:25:23;;;;;;;12.75;7.28;;;13.70;99.90;;;;;;5050726;28;20045;-69
2023/04/18 12:28:02;;;;;;;11.82;6.63;;;13.80;99.90;;;;;;5067906;28;20053;-68
2023/04/18 12:30:30;;;;;;;13.75;7.65;;;13.60;99.90;;;;;;5049228;28;20084;-68
2023/04/18 12:33:01;;;;;;;13.20;7.78;;;13.60;99.90;;;;;;5053177;28;20371;-68
2023/04/18 12:35:28;;;;;;;11.02;6.90;;;13.70;99.90;;;;;;5067891;28;20048;-68
2023/04/18 12:37:56;;;;;;;11.10;7.65;;;13.90;99.90;;;;;;5052056;28;20037;-68
2023/04/18 12:40:22;;;;;;;11.65;7.95;;;14.00;99.90;;;;;;5052289;28;20036;-68
2023/04/18 12:42:50;;;;;;;13.35;7.35;;;13.80;99.90;;;;;;5068069;28;20061;-68
2023/04/18 12:45:17;;;;;;;15.13;8.40;;;13.80;99.90;;;;;;5051806;28;20061;-68
2023/04/18 12:47:46;;;;;;;11.82;7.55;;;13.70;99.90;;;;;;5052354;28;20072;-68
2023/04/18 12:50:15;;;;;;;10.73;7.25;;;13.70;99.90;;;;;;5067379;28;20525;-68